Time;durP1;ratioP1;P1;durP2;ratioP2;P2;SDS_P1;SDS_P2;PMS_P1;PMS_P2;Temp;Humidity;BMP_temperature;BMP_pressure;BME280_temperature;BME280_humidity;BME280_pressure;Samples;Min_cycle;Max_cycle;Signal;HPM_P1;HPM_P2
2021/11/06 00:00:43;;;;;;;12.20;2.50;;;8.80;99.90;;;;;;5069567;28;20032;-76
2021/11/06 00:03:10;;;;;;;7.72;1.95;;;8.90;99.90;;;;;;5074038;28;20039;-76
2021/11/06 00:05:36;;;;;;;6.97;2.40;;;10.00;99.90;;;;;;5092556;28;20044;-76
2021/11/06 00:08:02;;;;;;;8.25;2.30;;;8.90;99.90;;;;;;5073901;28;20113;-74
2021/11/06 00:10:28;;;;;;;6.88;1.98;;;8.90;99.90;;;;;;5057653;28;20040;-74
2021/11/06 00:12:53;;;;;;;7.75;2.38;;;9.00;99.90;;;;;;5074290;28;20044;-74
2021/11/06 00:15:20;;;;;;;9.35;2.58;;;8.90;99.90;;;;;;5074268;28;20040;-73
2021/11/06 00:17:46;;;;;;;13.20;2.83;;;9.10;99.90;;;;;;5057448;28;20423;-73
2021/11/06 00:20:14;;;;;;;9.00;2.60;;;8.90;99.90;;;;;;5037518;28;20058;-74
2021/11/06 00:22:40;;;;;;;8.27;2.40;;;8.90;99.90;;;;;;5051338;28;20400;-73
2021/11/06 00:25:09;;;;;;;9.95;2.55;;;8.90;99.90;;;;;;5091995;28;20488;-74
2021/11/06 00:27:35;;;;;;;10.25;2.60;;;8.90;99.90;;;;;;5057019;28;20043;-73
2021/11/06 00:30:03;;;;;;;8.27;2.60;;;9.00;99.90;;;;;;5074017;28;20046;-73
2021/11/06 00:32:28;;;;;;;7.75;2.72;;;9.00;99.90;;;;;;5092437;28;20066;-74
2021/11/06 00:34:54;;;;;;;11.75;3.20;;;9.40;99.90;;;;;;5043494;28;20378;-73
2021/11/06 00:37:20;;;;;;;10.70;3.20;;;9.00;99.90;;;;;;5077787;28;20070;-74
2021/11/06 00:39:46;;;;;;;8.35;2.67;;;9.00;99.90;;;;;;5046374;28;20067;-73
2021/11/06 00:42:12;;;;;;;12.25;3.30;;;9.80;99.90;;;;;;5054126;28;20043;-73
2021/11/06 00:44:38;;;;;;;9.05;3.08;;;9.10;99.90;;;;;;5074404;28;20047;-73
2021/11/06 00:47:04;;;;;;;12.70;3.03;;;9.10;99.90;;;;;;5040170;28;20466;-73
2021/11/06 00:49:30;;;;;;;9.10;3.00;;;9.10;99.90;;;;;;5073824;28;20118;-73
2021/11/06 00:51:55;;;;;;;9.95;2.60;;;9.10;99.90;;;;;;5073713;28;20119;-81
2021/11/06 00:54:21;;;;;;;7.30;2.38;;;9.10;99.90;;;;;;5055499;28;20116;-81
2021/11/06 00:56:47;;;;;;;7.30;2.30;;;9.10;99.90;;;;;;5048569;28;20064;-81
2021/11/06 00:59:13;;;;;;;7.38;1.85;;;9.30;99.90;;;;;;5077598;28;20479;-80
2021/11/06 01:01:39;;;;;;;8.80;2.53;;;9.20;99.90;;;;;;5077574;28;20396;-81
2021/11/06 01:04:05;;;;;;;9.13;2.55;;;9.20;99.90;;;;;;5077214;28;20051;-81
2021/11/06 01:06:31;;;;;;;9.30;2.45;;;9.20;99.90;;;;;;5095788;28;20476;-81
2021/11/06 01:08:56;;;;;;;8.80;2.22;;;9.20;99.90;;;;;;5095415;28;20057;-81
2021/11/06 01:11:22;;;;;;;8.18;2.33;;;9.60;99.90;;;;;;5077092;28;20491;-73
2021/11/06 01:13:48;;;;;;;11.73;2.38;;;9.30;99.90;;;;;;5077166;28;20058;-74
2021/11/06 01:17:14;;;;;;;7.18;1.92;;;9.60;99.90;;;;;;5057175;28;20107;-73
2021/11/06 01:20:01;;;;;;;8.50;2.53;;;9.30;99.90;;;;;;4975009;28;20411;-73
2021/11/06 01:25:31;;;;;;;7.63;2.33;;;8.80;99.90;;;;;;5074674;28;20041;-74
2021/11/06 01:28:07;;;;;;;7.05;2.75;;;9.30;99.90;;;;;;5036749;28;20099;-74
2021/11/06 01:30:45;;;;;;;10.90;2.60;;;9.60;99.90;;;;;;5060361;28;20032;-74
2021/11/06 01:33:22;;;;;;;8.75;2.63;;;9.30;99.90;;;;;;5058253;28;20378;-73
2021/11/06 01:36:18;;;;;;;;;;;;;;;;;;;;;
2021/11/06 01:39:06;;;;;;;9.75;2.80;;;9.40;99.90;;;;;;5093365;28;20055;-73
2021/11/06 01:41:55;;;;;;;6.55;2.58;;;9.40;99.90;;;;;;5059277;28;20059;-73
2021/11/06 01:44:37;;;;;;;;;;;;;;;;;;;;;
2021/11/06 01:47:29;;;;;;;9.27;2.88;;;9.40;99.90;;;;;;5070449;28;20068;-73
2021/11/06 01:50:11;;;;;;;12.43;3.08;;;9.40;99.90;;;;;;5058316;28;20140;-73
2021/11/06 01:53:09;;;;;;;17.48;3.78;;;9.40;99.90;;;;;;5038674;28;20032;-73
2021/11/06 01:55:40;;;;;;;10.55;3.83;;;9.40;99.90;;;;;;5053760;28;20036;-73
2021/11/06 01:58:40;;;;;;;13.13;3.67;;;9.30;99.90;;;;;;5057151;28;20116;-81
2021/11/06 02:01:09;;;;;;;8.95;3.42;;;9.70;99.90;;;;;;5092598;28;20079;-73
2021/11/06 02:04:03;;;;;;;9.18;3.75;;;9.90;99.90;;;;;;5075940;28;20407;-73
2021/11/06 02:06:44;;;;;;;12.30;4.30;;;9.30;99.90;;;;;;5075795;28;20028;-73
2021/11/06 02:10:12;;;;;;;;;;;;;;;;;;;;;
2021/11/06 02:20:36;;;;;;;9.25;4.20;;;9.30;99.90;;;;;;4869212;29;20109;-74
2021/11/06 02:23:34;;;;;;;11.98;4.32;;;10.20;99.90;;;;;;4922274;28;20090;-74
2021/11/06 02:26:56;;;;;;;12.82;4.30;;;9.30;99.90;;;;;;4944483;28;20046;-74
2021/11/06 02:29:39;;;;;;;9.20;4.07;;;9.30;99.90;;;;;;4963475;28;20047;-83
2021/11/06 02:32:10;;;;;;;17.30;4.95;;;8.50;99.90;;;;;;4970837;28;20049;-82
2021/11/06 02:34:44;;;;;;;13.07;4.88;;;9.30;99.90;;;;;;4985236;28;20045;-82
2021/11/06 02:37:39;;;;;;;10.18;4.13;;;9.30;99.90;;;;;;5011646;28;20100;-82
2021/11/06 02:43:48;;;;;;;;;;;;;;;;;;;;;
2021/11/06 02:46:56;;;;;;;16.08;5.28;;;9.50;99.90;;;;;;4985823;28;20058;-82
2021/11/06 02:49:22;;;;;;;11.88;5.07;;;9.30;99.90;;;;;;4974795;28;20465;-82
2021/11/06 02:51:49;;;;;;;11.52;5.13;;;10.00;99.90;;;;;;5009174;28;20049;-82
2021/11/06 02:54:15;;;;;;;17.23;5.22;;;9.40;99.90;;;;;;5046450;28;20405;-82
2021/11/06 02:56:41;;;;;;;12.85;5.13;;;9.40;99.90;;;;;;5058679;28;20510;-82
2021/11/06 02:59:07;;;;;;;10.20;5.35;;;9.40;99.90;;;;;;5047708;28;20123;-82
2021/11/06 03:01:33;;;;;;;13.65;5.20;;;9.40;99.90;;;;;;5054940;28;20127;-82
2021/11/06 03:03:59;;;;;;;19.98;5.60;;;9.40;99.90;;;;;;5028351;28;20052;-82
2021/11/06 03:06:25;;;;;;;18.95;5.63;;;9.40;99.90;;;;;;5051666;28;20090;-75
2021/11/06 03:08:50;;;;;;;14.05;5.80;;;9.40;99.90;;;;;;5047212;28;20485;-82
2021/11/06 03:11:16;;;;;;;11.57;5.35;;;9.80;99.90;;;;;;5059837;28;20036;-82
2021/11/06 03:13:44;;;;;;;14.32;5.93;;;9.40;99.90;;;;;;5049115;28;20073;-82
2021/11/06 03:16:12;;;;;;;13.88;5.97;;;9.40;99.90;;;;;;5078891;28;20063;-82
2021/11/06 03:18:38;;;;;;;16.17;5.97;;;9.40;99.90;;;;;;5088139;28;20503;-82
2021/11/06 03:21:04;;;;;;;14.60;5.80;;;9.40;99.90;;;;;;5065596;28;20036;-83
2021/11/06 03:23:30;;;;;;;13.90;6.30;;;9.40;99.90;;;;;;5043834;28;21331;-82
2021/11/06 03:25:56;;;;;;;15.27;6.68;;;9.40;99.90;;;;;;5066219;28;20036;-82
2021/11/06 03:28:22;;;;;;;11.57;5.90;;;9.40;99.90;;;;;;5072853;28;20392;-82
2021/11/06 03:30:48;;;;;;;13.27;6.40;;;9.40;99.90;;;;;;5074735;28;20044;-82
2021/11/06 03:33:14;;;;;;;16.73;6.57;;;9.40;99.90;;;;;;5061989;28;20044;-82
2021/11/06 03:35:40;;;;;;;13.45;6.40;;;9.60;99.90;;;;;;5054541;28;20472;-82
2021/11/06 03:38:06;;;;;;;19.67;6.47;;;9.40;99.90;;;;;;5083136;28;20513;-82
2021/11/06 03:40:32;;;;;;;18.60;6.93;;;9.50;99.90;;;;;;5041132;28;20051;-83
2021/11/06 03:42:58;;;;;;;13.27;7.00;;;9.40;99.90;;;;;;5063017;28;20123;-82
2021/11/06 03:45:24;;;;;;;18.13;7.57;;;9.50;99.90;;;;;;5078266;28;20048;-83
2021/11/06 03:47:50;;;;;;;15.27;7.28;;;9.40;99.90;;;;;;5074762;28;20040;-82
2021/11/06 03:50:15;;;;;;;16.77;7.18;;;9.50;99.90;;;;;;5074505;28;20044;-82
2021/11/06 03:52:41;;;;;;;16.77;7.53;;;9.50;99.90;;;;;;5074258;28;20044;-82
2021/11/06 03:55:09;;;;;;;19.02;6.88;;;9.40;99.90;;;;;;5074291;28;20043;-82
2021/11/06 03:57:35;;;;;;;16.38;7.57;;;9.40;99.90;;;;;;5057771;28;20079;-83
2021/11/06 04:00:02;;;;;;;13.13;7.35;;;9.50;99.90;;;;;;5092533;28;20036;-82
2021/11/06 04:02:28;;;;;;;17.95;7.55;;;9.50;99.90;;;;;;5060223;28;20041;-82
2021/11/06 04:04:53;;;;;;;17.58;8.35;;;9.50;99.90;;;;;;5043909;28;20044;-82
2021/11/06 04:07:19;;;;;;;19.33;8.20;;;9.50;99.90;;;;;;5074332;28;20066;-82
2021/11/06 04:09:45;;;;;;;19.65;8.05;;;9.60;99.90;;;;;;5054362;28;20037;-82
2021/11/06 04:12:10;;;;;;;17.70;8.73;;;10.20;99.90;;;;;;5054301;28;20047;-82
2021/11/06 04:14:36;;;;;;;17.05;8.57;;;9.50;99.90;;;;;;5088381;28;20472;-82
2021/11/06 04:17:02;;;;;;;18.60;8.20;;;9.50;99.90;;;;;;5033020;28;20075;-83
2021/11/06 04:19:28;;;;;;;18.02;8.80;;;9.50;99.90;;;;;;5018599;28;20078;-82
2021/11/06 04:21:54;;;;;;;21.88;8.65;;;9.50;99.90;;;;;;5060124;28;20035;-82
2021/11/06 04:24:19;;;;;;;24.48;8.88;;;9.30;99.90;;;;;;5057902;28;20044;-82
2021/11/06 04:26:45;;;;;;;18.95;9.02;;;9.70;99.90;;;;;;5057417;28;20044;-82
2021/11/06 04:29:11;;;;;;;16.05;8.88;;;9.50;99.90;;;;;;5040181;28;20179;-82
2021/11/06 04:31:36;;;;;;;16.80;9.15;;;9.60;99.90;;;;;;5055440;28;20047;-82
2021/11/06 04:34:02;;;;;;;24.60;9.50;;;10.50;99.90;;;;;;5057921;28;20399;-82
2021/11/06 04:36:28;;;;;;;20.42;9.43;;;9.60;99.90;;;;;;5019203;28;20033;-82
2021/11/06 04:38:54;;;;;;;20.23;9.95;;;9.60;99.90;;;;;;5063756;28;20476;-82
2021/11/06 04:41:20;;;;;;;28.20;10.20;;;9.60;99.90;;;;;;5077786;28;20127;-82
2021/11/06 04:43:46;;;;;;;19.13;9.70;;;10.10;99.90;;;;;;5073936;28;20449;-82
2021/11/06 04:46:12;;;;;;;21.38;10.57;;;9.80;99.90;;;;;;5068192;28;20104;-82
2021/11/06 04:48:37;;;;;;;20.42;9.93;;;9.60;99.90;;;;;;5063436;28;20480;-82
2021/11/06 04:51:03;;;;;;;26.23;10.93;;;9.70;99.90;;;;;;5077313;28;20058;-83
2021/11/06 04:53:29;;;;;;;20.88;10.70;;;9.60;99.90;;;;;;5077571;28;20409;-82
2021/11/06 04:55:55;;;;;;;24.25;11.07;;;9.80;99.90;;;;;;5081569;28;20040;-82
2021/11/06 04:58:21;;;;;;;19.20;11.05;;;9.80;99.90;;;;;;5095658;28;20039;-82
2021/11/06 05:00:46;;;;;;;23.20;11.35;;;9.70;99.90;;;;;;5095509;28;20043;-82
2021/11/06 05:03:14;;;;;;;18.45;11.35;;;9.70;99.90;;;;;;5077576;28;20036;-83
2021/11/06 05:05:41;;;;;;;21.08;11.65;;;9.70;99.90;;;;;;5048667;28;20373;-82
2021/11/06 05:08:07;;;;;;;21.88;11.68;;;9.80;99.90;;;;;;5079867;28;20036;-82
2021/11/06 05:10:33;;;;;;;19.77;11.93;;;9.70;99.90;;;;;;5050157;28;20442;-82
2021/11/06 05:12:58;;;;;;;25.42;12.60;;;9.70;99.90;;;;;;5054457;28;20515;-82
2021/11/06 05:15:24;;;;;;;22.45;13.00;;;9.70;99.90;;;;;;5065750;28;20102;-82
2021/11/06 05:17:52;;;;;;;22.90;13.70;;;9.90;99.90;;;;;;5045804;28;20040;-83
2021/11/06 05:20:18;;;;;;;24.48;13.57;;;9.70;99.90;;;;;;5040232;28;20115;-82
2021/11/06 05:22:43;;;;;;;25.30;14.27;;;9.70;99.90;;;;;;5057044;28;20127;-82
2021/11/06 05:25:12;;;;;;;20.80;14.55;;;10.50;99.90;;;;;;5062285;28;20349;-82
2021/11/06 05:27:38;;;;;;;32.08;15.75;;;9.80;99.90;;;;;;5077030;28;20051;-82
2021/11/06 05:30:07;;;;;;;22.35;14.02;;;9.70;99.90;;;;;;5057094;28;20047;-82
2021/11/06 05:32:34;;;;;;;27.45;14.85;;;9.70;99.90;;;;;;5040251;28;20057;-82
2021/11/06 05:35:00;;;;;;;27.55;14.93;;;9.70;99.90;;;;;;5054452;28;20082;-82
2021/11/06 05:37:26;;;;;;;24.80;14.95;;;9.70;99.90;;;;;;5056808;28;20036;-83
2021/11/06 05:39:51;;;;;;;28.13;14.88;;;9.60;99.90;;;;;;5053967;28;20056;-82
2021/11/06 05:42:17;;;;;;;24.52;14.77;;;9.70;99.90;;;;;;5056815;28;20040;-82
2021/11/06 05:44:43;;;;;;;27.48;15.27;;;9.60;99.90;;;;;;5068698;28;20054;-82
2021/11/06 05:47:08;;;;;;;29.50;15.95;;;10.10;99.90;;;;;;5072502;28;20120;-82
2021/11/06 05:49:34;;;;;;;31.80;16.30;;;9.60;99.90;;;;;;5056577;28;20090;-82
2021/11/06 05:52:00;;;;;;;27.63;16.15;;;9.60;99.90;;;;;;5053971;28;20538;-82
2021/11/06 05:54:26;;;;;;;28.02;16.30;;;9.60;99.90;;;;;;5074498;28;20056;-83
2021/11/06 05:56:51;;;;;;;35.20;16.73;;;9.60;99.90;;;;;;5053656;28;20044;-82
2021/11/06 05:59:17;;;;;;;35.97;17.35;;;9.50;99.90;;;;;;5074316;28;20119;-83
2021/11/06 06:01:43;;;;;;;27.13;16.55;;;9.70;99.90;;;;;;5064374;28;20032;-82
2021/11/06 06:04:09;;;;;;;33.28;18.13;;;10.20;99.90;;;;;;5094818;28;20048;-82
2021/11/06 06:06:35;;;;;;;26.95;17.55;;;9.60;99.90;;;;;;5088337;28;20039;-82
2021/11/06 06:09:00;;;;;;;30.63;17.75;;;9.60;99.90;;;;;;5067930;28;20051;-82
2021/11/06 06:11:26;;;;;;;29.33;17.60;;;9.60;99.90;;;;;;5075904;28;20036;-83
2021/11/06 06:13:52;;;;;;;28.73;17.25;;;9.60;99.90;;;;;;5059249;28;20392;-82
2021/11/06 06:16:18;;;;;;;32.47;17.55;;;9.60;99.90;;;;;;5061908;28;20052;-81
2021/11/06 06:18:46;;;;;;;34.70;17.90;;;9.60;99.90;;;;;;5051275;28;20075;-82
2021/11/06 06:21:13;;;;;;;26.92;18.45;;;9.60;99.90;;;;;;5053443;28;20119;-82
2021/11/06 06:23:40;;;;;;;29.50;18.80;;;9.60;99.90;;;;;;5075977;28;20043;-82
2021/11/06 06:26:05;;;;;;;32.15;18.77;;;9.60;99.90;;;;;;5094675;28;20372;-83
2021/11/06 06:28:31;;;;;;;31.67;18.58;;;9.60;99.90;;;;;;5093919;28;20043;-82
2021/11/06 06:30:57;;;;;;;30.20;18.42;;;9.60;99.90;;;;;;5094003;28;20050;-82
2021/11/06 06:33:22;;;;;;;35.88;19.85;;;9.60;99.90;;;;;;5061447;28;20044;-82
2021/11/06 06:35:48;;;;;;;30.00;19.10;;;9.60;99.90;;;;;;5093945;28;20050;-82
2021/11/06 06:38:14;;;;;;;29.75;18.75;;;9.90;99.90;;;;;;5075826;28;20483;-82
2021/11/06 06:40:40;;;;;;;30.20;19.10;;;9.60;99.90;;;;;;5052537;28;20040;-82
2021/11/06 06:43:05;;;;;;;27.73;18.50;;;9.60;99.90;;;;;;5068038;28;20040;-82
2021/11/06 06:45:31;;;;;;;32.70;20.13;;;9.60;99.90;;;;;;5038646;28;20068;-82
2021/11/06 06:47:57;;;;;;;31.05;19.63;;;9.60;99.90;;;;;;5049275;28;20477;-82
2021/11/06 06:50:23;;;;;;;32.90;20.35;;;9.60;99.90;;;;;;5043883;28;20055;-82
2021/11/06 06:52:51;;;;;;;38.75;19.98;;;9.60;99.90;;;;;;5084872;28;20467;-82
2021/11/06 06:55:17;;;;;;;33.47;20.77;;;9.80;99.90;;;;;;5053124;28;20040;-82
2021/11/06 06:57:43;;;;;;;27.92;20.08;;;9.60;99.90;;;;;;5071260;28;20104;-83
2021/11/06 07:00:10;;;;;;;29.13;20.15;;;9.60;99.90;;;;;;5075788;28;20111;-82
2021/11/06 07:02:40;;;;;;;35.33;20.42;;;9.70;99.90;;;;;;5039536;28;20080;-82
2021/11/06 07:05:11;;;;;;;34.80;21.80;;;9.70;99.90;;;;;;5075782;28;20072;-82
2021/11/06 07:07:37;;;;;;;31.65;21.08;;;10.30;99.90;;;;;;5049915;28;20048;-82
2021/11/06 07:10:05;;;;;;;32.47;21.30;;;9.70;99.90;;;;;;5058609;28;20047;-83
2021/11/06 07:12:30;;;;;;;32.25;20.38;;;9.70;99.90;;;;;;5093225;28;20044;-82
2021/11/06 07:14:57;;;;;;;33.13;20.92;;;9.70;99.90;;;;;;5060777;28;20075;-82
2021/11/06 07:17:23;;;;;;;38.13;21.65;;;9.70;99.90;;;;;;5058467;28;20040;-82
2021/11/06 07:19:49;;;;;;;30.65;20.23;;;9.80;99.90;;;;;;5093177;28;20040;-82
2021/11/06 07:22:14;;;;;;;31.30;20.60;;;9.80;99.90;;;;;;5074614;28;20123;-82
2021/11/06 07:24:41;;;;;;;33.40;20.77;;;9.80;99.90;;;;;;5092750;28;20110;-82
2021/11/06 07:27:08;;;;;;;31.60;19.63;;;9.80;99.90;;;;;;5074966;28;20036;-82
2021/11/06 07:29:35;;;;;;;34.97;20.05;;;9.90;99.90;;;;;;5074608;28;20039;-83
2021/11/06 07:32:01;;;;;;;35.55;20.23;;;9.80;99.90;;;;;;5087388;28;20041;-82
2021/11/06 07:34:27;;;;;;;30.40;19.88;;;9.90;99.90;;;;;;5054612;28;20058;-83
2021/11/06 07:36:53;;;;;;;35.35;19.85;;;10.10;99.90;;;;;;5071670;28;20040;-83
2021/11/06 07:39:18;;;;;;;34.83;19.40;;;9.90;99.90;;;;;;5065286;28;20044;-82
2021/11/06 07:41:45;;;;;;;33.25;19.00;;;9.90;99.90;;;;;;5069894;28;20071;-82
2021/11/06 07:44:12;;;;;;;34.33;20.27;;;10.00;99.90;;;;;;5092832;28;20040;-82
2021/11/06 07:46:39;;;;;;;30.90;19.77;;;9.90;99.90;;;;;;5044364;28;20051;-82
2021/11/06 07:49:05;;;;;;;32.67;20.38;;;9.90;99.90;;;;;;5059894;28;20040;-82
2021/11/06 07:51:32;;;;;;;31.60;19.70;;;9.90;99.90;;;;;;5038266;28;20067;-83
2021/11/06 07:54:18;;;;;;;36.15;20.15;;;9.90;99.90;;;;;;5072743;28;20090;-82
2021/11/06 07:56:44;;;;;;;33.63;19.92;;;9.90;99.90;;;;;;5057337;28;20590;-82
2021/11/06 07:59:10;;;;;;;29.10;19.65;;;10.30;99.90;;;;;;5088453;28;20083;-82
2021/11/06 08:01:36;;;;;;;34.55;19.35;;;10.00;99.90;;;;;;5092679;28;20123;-83
2021/11/06 08:04:01;;;;;;;30.27;18.45;;;10.00;99.90;;;;;;5077554;28;20399;-82
2021/11/06 08:06:27;;;;;;;35.00;19.42;;;10.00;99.90;;;;;;5048014;28;20039;-82
2021/11/06 08:08:53;;;;;;;33.95;20.50;;;10.00;99.90;;;;;;5067817;28;20036;-82
2021/11/06 08:11:20;;;;;;;31.30;20.05;;;10.10;99.90;;;;;;5060934;28;20502;-82
2021/11/06 08:13:46;;;;;;;27.65;18.50;;;10.10;99.90;;;;;;5061866;28;20089;-83
2021/11/06 08:16:12;;;;;;;34.03;18.80;;;10.10;99.90;;;;;;5063833;28;20052;-82
2021/11/06 08:18:38;;;;;;;34.15;18.48;;;10.10;99.90;;;;;;5078463;28;20047;-82
2021/11/06 08:21:04;;;;;;;31.75;18.33;;;10.90;99.90;;;;;;5061777;28;20101;-83
2021/11/06 08:23:29;;;;;;;33.08;18.00;;;10.10;99.90;;;;;;5058725;28;20045;-83
2021/11/06 08:25:55;;;;;;;25.60;17.08;;;10.10;99.90;;;;;;5041507;28;20051;-82
2021/11/06 08:28:21;;;;;;;30.33;17.55;;;10.10;99.90;;;;;;5041525;28;20464;-83
2021/11/06 08:30:47;;;;;;;30.05;17.27;;;10.20;99.90;;;;;;5067292;28;20054;-82
2021/11/06 08:33:13;;;;;;;27.67;17.20;;;10.10;99.90;;;;;;5058109;28;20127;-83
2021/11/06 08:35:40;;;;;;;30.20;16.50;;;10.10;99.90;;;;;;5083210;28;20028;-82
2021/11/06 08:38:06;;;;;;;31.20;17.38;;;10.10;99.90;;;;;;5096384;28;20040;-83
2021/11/06 08:40:32;;;;;;;30.33;17.88;;;10.10;99.90;;;;;;5078519;28;20032;-82
2021/11/06 08:42:58;;;;;;;31.83;17.17;;;10.10;99.90;;;;;;5084629;28;20032;-83
2021/11/06 08:45:24;;;;;;;30.77;17.63;;;10.50;99.90;;;;;;5075223;28;20373;-83
2021/11/06 08:47:50;;;;;;;27.77;16.90;;;10.20;99.90;;;;;;5068354;28;20199;-83
2021/11/06 08:50:20;;;;;;;31.45;17.23;;;11.00;99.90;;;;;;5058963;28;20123;-83
2021/11/06 08:52:47;;;;;;;26.85;17.17;;;10.20;99.90;;;;;;5069625;28;20051;-82
2021/11/06 08:55:14;;;;;;;30.55;17.23;;;10.20;99.90;;;;;;5058092;28;20154;-83
2021/11/06 08:57:41;;;;;;;30.83;17.15;;;10.20;99.90;;;;;;5075154;28;20074;-83
2021/11/06 09:00:14;;;;;;;33.05;18.23;;;10.30;99.90;;;;;;5049636;28;20040;-83
2021/11/06 09:02:41;;;;;;;27.13;16.52;;;10.30;99.90;;;;;;5077422;28;20048;-82
2021/11/06 09:05:08;;;;;;;29.73;18.08;;;10.30;99.90;;;;;;5052927;28;20124;-83
2021/11/06 09:07:35;;;;;;;29.63;17.52;;;11.10;99.90;;;;;;5054918;28;20484;-83
2021/11/06 09:10:06;;;;;;;29.20;17.70;;;10.30;99.90;;;;;;5063540;28;20542;-82
2021/11/06 09:12:32;;;;;;;24.40;16.45;;;10.30;99.90;;;;;;5095404;28;20040;-83
2021/11/06 09:14:57;;;;;;;35.17;17.23;;;10.40;99.90;;;;;;5057674;28;20049;-82
2021/11/06 09:17:23;;;;;;;30.30;17.42;;;10.40;99.90;;;;;;5086309;28;20067;-82
2021/11/06 09:19:50;;;;;;;31.05;16.63;;;10.40;99.90;;;;;;5076770;28;20036;-82
2021/11/06 09:22:17;;;;;;;32.22;17.15;;;10.40;99.90;;;;;;5075292;28;20102;-83
2021/11/06 09:24:50;;;;;;;32.55;17.15;;;11.40;99.90;;;;;;5057355;28;20043;-85
2021/11/06 09:27:17;;;;;;;29.85;17.17;;;10.40;99.90;;;;;;5050178;28;20044;-78
2021/11/06 09:29:43;;;;;;;33.17;16.63;;;10.50;99.90;;;;;;5079618;28;20036;-77
2021/11/06 09:32:10;;;;;;;32.25;17.08;;;11.00;99.90;;;;;;5087182;28;20044;-75
2021/11/06 09:34:45;;;;;;;28.42;16.73;;;10.50;99.90;;;;;;5049932;28;20039;-84
2021/11/06 09:37:22;;;;;;;30.20;16.42;;;10.50;99.90;;;;;;5050402;28;20032;-82
2021/11/06 09:39:53;;;;;;;28.63;16.15;;;10.60;99.90;;;;;;5080873;28;20407;-83
2021/11/06 09:42:22;;;;;;;27.38;15.63;;;10.80;99.90;;;;;;5061698;28;20044;-84
2021/11/06 09:44:52;;;;;;;28.38;15.55;;;10.80;99.90;;;;;;5064155;28;20048;-85
2021/11/06 09:47:37;;;;;;;28.92;16.67;;;10.40;99.90;;;;;;5065856;28;20120;-81
2021/11/06 09:50:05;;;;;;;30.38;16.27;;;10.70;99.90;;;;;;5065534;28;20037;-85
2021/11/06 09:52:31;;;;;;;24.27;15.05;;;10.70;99.90;;;;;;5078510;28;20075;-82
2021/11/06 09:54:57;;;;;;;28.45;17.17;;;10.70;99.90;;;;;;5038576;28;20072;-87
2021/11/06 09:57:25;;;;;;;30.70;16.40;;;10.70;99.90;;;;;;5053454;28;20067;-74
2021/11/06 09:59:53;;;;;;;29.67;16.08;;;10.70;99.90;;;;;;5057847;28;20101;-75
2021/11/06 10:02:19;;;;;;;26.65;15.75;;;10.80;99.90;;;;;;5065040;28;20479;-77
2021/11/06 10:04:45;;;;;;;26.70;15.68;;;10.70;99.90;;;;;;5066196;28;20047;-75
2021/11/06 10:07:20;;;;;;;27.05;15.82;;;10.80;99.90;;;;;;5067933;28;20546;-77
2021/11/06 10:10:02;;;;;;;27.90;15.10;;;10.80;99.90;;;;;;5083303;28;20492;-76
2021/11/06 10:12:53;;;;;;;23.58;14.77;;;10.80;99.90;;;;;;5050642;28;20059;-78
2021/11/06 10:15:24;;;;;;;26.58;14.45;;;10.80;99.90;;;;;;5046973;28;20055;-78
2021/11/06 10:17:50;;;;;;;27.70;14.88;;;10.80;99.90;;;;;;5061190;28;20056;-78
2021/11/06 10:20:32;;;;;;;25.75;15.10;;;10.80;99.90;;;;;;5031827;28;20033;-77
2021/11/06 10:23:02;;;;;;;23.48;14.20;;;10.80;99.90;;;;;;5023795;28;20044;-80
2021/11/06 10:25:30;;;;;;;24.63;15.15;;;10.80;99.90;;;;;;5058406;28;20075;-77
2021/11/06 10:28:03;;;;;;;28.25;15.35;;;11.00;99.90;;;;;;5055535;28;20076;-74
2021/11/06 10:30:38;;;;;;;25.35;14.68;;;10.80;99.90;;;;;;5049410;28;20041;-74
2021/11/06 10:33:05;;;;;;;26.23;15.75;;;10.80;99.90;;;;;;5042692;28;20036;-74
2021/11/06 10:35:37;;;;;;;34.25;16.08;;;10.90;99.90;;;;;;5047277;28;20047;-73
2021/11/06 10:38:08;;;;;;;25.90;14.52;;;10.90;99.90;;;;;;5028442;28;20370;-72
2021/11/06 10:40:40;;;;;;;24.25;14.48;;;10.90;99.90;;;;;;5043069;28;20040;-73
2021/11/06 10:43:07;;;;;;;25.83;14.38;;;10.90;99.90;;;;;;5052861;28;20431;-78
2021/11/06 10:45:36;;;;;;;22.80;14.10;;;11.00;99.90;;;;;;5044997;28;20404;-78
2021/11/06 10:48:09;;;;;;;27.58;14.90;;;11.00;99.90;;;;;;5019121;28;20052;-78
2021/11/06 10:50:45;;;;;;;25.08;13.70;;;11.00;99.90;;;;;;5036667;28;20040;-78
2021/11/06 10:53:14;;;;;;;23.88;14.15;;;11.00;99.90;;;;;;5055220;28;20057;-78
2021/11/06 10:55:42;;;;;;;27.77;14.10;;;11.10;99.90;;;;;;5051673;28;20036;-78
2021/11/06 10:58:29;;;;;;;26.98;13.68;;;11.10;99.90;;;;;;5017984;28;20049;-78
2021/11/06 11:01:07;;;;;;;26.75;12.85;;;11.10;99.90;;;;;;5051475;28;20040;-78
2021/11/06 11:03:45;;;;;;;25.33;13.23;;;11.20;99.90;;;;;;5049901;28;20090;-76
2021/11/06 11:06:21;;;;;;;24.13;13.30;;;11.20;99.90;;;;;;5071658;28;20048;-76
2021/11/06 11:08:53;;;;;;;26.52;13.65;;;11.20;99.90;;;;;;5083064;28;20041;-76
2021/11/06 11:11:24;;;;;;;26.10;13.60;;;11.30;99.90;;;;;;5073106;28;20189;-76
2021/11/06 11:13:55;;;;;;;24.90;12.98;;;11.30;99.90;;;;;;5051772;28;20074;-76
2021/11/06 11:16:24;;;;;;;25.13;13.57;;;11.40;99.90;;;;;;5068357;28;20106;-76
2021/11/06 11:18:52;;;;;;;25.35;12.70;;;11.30;99.90;;;;;;5049349;28;20044;-76
2021/11/06 11:21:26;;;;;;;24.20;12.80;;;11.40;99.90;;;;;;5069817;28;20122;-75
2021/11/06 11:23:57;;;;;;;23.33;12.98;;;11.50;99.90;;;;;;5066929;28;20071;-76
2021/11/06 11:26:25;;;;;;;22.13;12.93;;;11.40;99.90;;;;;;5053153;28;20044;-76
2021/11/06 11:28:52;;;;;;;30.30;13.25;;;11.50;99.90;;;;;;5093002;28;20032;-76
2021/11/06 11:31:31;;;;;;;30.77;13.43;;;11.50;99.90;;;;;;5091192;28;20377;-76
2021/11/06 11:33:58;;;;;;;25.33;12.60;;;11.50;99.90;;;;;;5043329;28;20032;-76
2021/11/06 11:36:27;;;;;;;28.27;12.80;;;11.50;99.90;;;;;;5061236;28;20036;-76
2021/11/06 11:38:53;;;;;;;26.42;13.48;;;11.50;99.90;;;;;;5068736;28;20044;-76
2021/11/06 11:41:46;;;;;;;25.60;12.70;;;11.50;99.90;;;;;;5083315;28;20418;-76
2021/11/06 11:45:08;;;;;;;35.10;14.05;;;11.50;99.90;;;;;;5072926;28;20075;-76
2021/11/06 11:48:00;;;;;;;23.23;13.35;;;11.50;99.90;;;;;;4973354;28;20045;-78
2021/11/06 11:50:31;;;;;;;27.25;13.20;;;11.50;99.90;;;;;;5089710;28;20052;-78
2021/11/06 11:53:02;;;;;;;26.17;13.43;;;11.30;99.90;;;;;;5102316;28;20036;-78
2021/11/06 11:55:42;;;;;;;25.17;13.52;;;11.50;99.90;;;;;;5092462;28;20391;-78
2021/11/06 11:58:08;;;;;;;27.17;14.05;;;11.50;99.90;;;;;;5084078;28;20040;-78
2021/11/06 12:00:49;;;;;;;23.92;14.02;;;11.50;99.90;;;;;;5075967;28;20131;-78
2021/11/06 12:03:30;;;;;;;28.70;13.77;;;11.50;99.90;;;;;;5063524;28;20131;-78
2021/11/06 12:05:57;;;;;;;26.42;13.23;;;11.90;99.90;;;;;;5088965;28;20043;-78
2021/11/06 12:08:26;;;;;;;29.52;13.77;;;11.50;99.90;;;;;;5078802;28;20092;-78
2021/11/06 12:11:00;;;;;;;27.33;13.98;;;11.50;99.90;;;;;;5095198;28;20070;-78
2021/11/06 12:13:26;;;;;;;27.13;13.88;;;11.50;99.90;;;;;;5092917;28;20078;-78
2021/11/06 12:16:06;;;;;;;28.48;13.40;;;11.50;99.90;;;;;;5057759;28;20088;-78
2021/11/06 12:18:35;;;;;;;30.85;12.98;;;11.50;99.90;;;;;;5075057;28;20392;-78
2021/11/06 12:21:16;;;;;;;23.15;13.05;;;11.60;99.90;;;;;;5104083;28;20539;-78
2021/11/06 12:23:52;;;;;;;25.15;12.55;;;11.60;99.90;;;;;;5112788;28;20051;-78
2021/11/06 12:26:20;;;;;;;23.58;12.68;;;11.60;99.90;;;;;;5112678;28;20357;-76
2021/11/06 12:28:47;;;;;;;24.63;12.07;;;11.60;99.90;;;;;;5080856;28;20036;-78
2021/11/06 12:31:43;;;;;;;25.70;12.27;;;11.70;99.90;;;;;;5099687;28;20111;-75
2021/11/06 12:34:10;;;;;;;;;;;11.60;99.90;;;;;;5102500;28;20048;-76
2021/11/06 12:36:42;;;;;;;21.48;11.60;;;11.60;99.90;;;;;;5069536;28;19942;-78
2021/11/06 12:39:12;;;;;;;24.70;12.27;;;11.70;99.90;;;;;;5069976;28;20040;-78
2021/11/06 12:41:39;;;;;;;20.95;10.88;;;11.70;99.90;;;;;;5089694;28;20137;-78
2021/11/06 12:44:07;;;;;;;24.75;11.68;;;12.00;99.90;;;;;;5094546;28;20044;-78
2021/11/06 12:46:36;;;;;;;22.08;10.85;;;11.70;99.90;;;;;;5094995;28;20123;-78
2021/11/06 12:49:05;;;;;;;21.05;10.57;;;11.70;99.90;;;;;;5064219;28;20063;-78
2021/11/06 12:51:32;;;;;;;19.63;10.18;;;11.70;99.90;;;;;;5072760;28;20078;-78
2021/11/06 12:54:01;;;;;;;26.13;10.52;;;11.80;99.90;;;;;;5081875;28;20040;-78
2021/11/06 12:56:37;;;;;;;22.67;11.05;;;11.80;99.90;;;;;;5098016;28;20477;-78
2021/11/06 12:59:12;;;;;;;22.02;10.10;;;11.90;99.90;;;;;;5097968;28;20432;-77
2021/11/06 13:02:05;;;;;;;21.80;10.15;;;11.80;99.90;;;;;;5084837;28;20069;-77
2021/11/06 13:04:34;;;;;;;20.83;10.20;;;12.30;99.90;;;;;;5082623;28;20071;-78
2021/11/06 13:07:02;;;;;;;20.52;9.65;;;11.90;99.90;;;;;;5097553;28;20046;-78
2021/11/06 13:09:38;;;;;;;23.17;9.82;;;11.80;99.90;;;;;;5093297;28;20050;-78
2021/11/06 13:12:06;;;;;;;;;;;11.90;99.90;;;;;;5089083;28;20046;-78